Main page
METAR-TAF:

METAR-TAF

Airports :

Tiree Airport

Tiree, Scotland

latitude: 56-30N, longitude: 006-53W, elevation: 12 m

Current weather observation

The report was made 54 minutes ago, at 12:50 UTC
Wind 13 kt from the Southeast
Temperature 7°C
Humidity 87%
Pressure 993 hPa
Visibility 10 km or more

METAR: EGPU 131250Z AUTO 13013KT 9999 FEW018/// BKN027/// 07/05 Q0993 RERA

Time: 13:44 (13:44 UTC)

Forecast

The report was made 2 hours and 46 minutes ago, at 10:58 UTC
Forecast valid from 13 at 12 UTC to 13 at 19 UTC
Wind 15 kt from the East/Southeast
Visibility 10 km or more
Scattered clouds at a height of 3000 ft
Temporary
from 13 at 12 UTC to 13 at 19 UTC
Visibility: 6000 m
Broken clouds at a height of 1400 ft
rain showers

TAF: EGPU 131058Z 1312/1319 12015KT 9999 SCT030 TEMPO 1312/1319 6000 SHRA BKN014

Weather observations and forecasts of more than 4000 airports (METAR and TAF reports).

The available stations are represented by yellow and red dots on the map.

Hover mouse over dot to see the name of the station.

Then click to see weather observations and forecasts.

To change the map : click on the green buttons with a black cross to zoom in, on the green button with a dash to zoom out, or on the green arrows for adjacent maps.


METAR-TAF: